x

Yucatan Basin - 120 Nm Ese Of Cozumel, Mx (42056) Wave Buoy

3:50 - Tue 16th Sep 2014 All times are CDT. -5 hours from GMT.

  • Sig Wave height 3.9ft
  • Swell Direction
  • Peak Period 7s
  • Average Period 5s
  • Wind
    13mph, 16mph gusts
  • Sea Temp 85°f
  • Luft Temp 83°f
  • Sea Pressure 1015.3mb
  •  Yucatan Basin - 120 Nm Ese Of Cozumel, Mx
  •  Yucatan Basin - 120 Nm Ese Of Cozumel, Mx

More Historic Weather Station data

Upgrade to MSW Pro to gain access to the past 30 days of data for over 8000 Wavebouys and Weather Stations around the globe.

Join Pro

Comparision Forecast

View Surf forecast
   
Di 09/16 3:50 4ft 7s 5s 13 16 mph 1015.3mb 85f 83f
2:50 4ft 7s 5s 13 16 mph 1015.4mb 85f 84f
1:50 4ft 8s 5s 16 18 mph 1015.6mb 85f 84f
12:50 3.5ft 6s 5s 16 18 mph 1015.9mb 85f 84f
Mo 09/15 11:50 3.5ft 7s 4s 16 20 mph 1016mb 85f 84f
10:50 4ft 6s 5s 18 22 mph 1016.4mb 85f 84f
9:50 3.5ft 8s 4s 18 20 mph 1016.3mb 85f 84f
8:50 3.5ft 6s 5s 16 18 mph 1015.9mb 85f 85f
7:50 3.5ft 6s 4s 18 22 mph 1015.2mb 85f 84f
6:50 3.5ft 6s 4s 18 20 mph 1014.9mb 85f 84f
5:50 3.5ft 6s 4s 18 20 mph 1014.7mb 85f 85f
4:50 3.5ft 7s 4s 18 20 mph 1014.5mb 86f 85f
3:50 3.5ft 7s 5s 18 20 mph 1014.5mb 86f 85f
2:50 3.5ft 6s 5s 16 18 mph 1015mb 86f 85f
1:50 3.5ft 7s 5s 16 18 mph 1015.4mb 86f 85f
12:50 4ft 6s 5s 16 18 mph 1016.2mb 86f 85f
11:50 4ft 6s 5s 18 20 mph 1016.3mb 85f 85f
10:50 4ft 6s 5s 18 20 mph 1016.9mb 85f 85f
9:50 4ft 8s 5s 16 18 mph 1017mb 85f 85f
8:50 4ft 6s 5s 16 18 mph 1016.4mb 85f 84f
7:50 4.5ft 5s 5s 16 20 mph 1015.9mb 85f 84f
6:50 4.5ft 6s 5s 18 20 mph 1015.4mb 85f 84f
5:50 4.5ft 6s 5s 18 22 mph 1014.8mb 85f 84f
4:50 4.5ft 5s 5s 18 22 mph 1014.6mb 85f 84f
3:50 4.5ft 6s 5s 18 22 mph 1014.7mb 85f 84f
2:50 4.5ft 5s 5s 20 22 mph 1014.5mb 85f 84f
1:50 4.5ft 8s 5s 18 22 mph 1015.1mb 85f 84f
12:50 4.5ft 6s 5s 18 22 mph 1015.4mb 85f 84f
So 09/14 11:50 4.5ft 5s 4s 20 25 mph 1016mb 85f 84f
10:50 4.5ft 5s 5s 20 25 mph 1016mb 85f 85f
9:50 5ft 5s 5s 22 27 mph 1015.5mb 85f 85f
8:50 4.5ft 5s 4s 22 25 mph 1014.9mb 85f 85f
7:50 4.5ft 7s 4s 22 27 mph 1014.1mb 85f 85f
6:50 4.5ft 7s 5s 22 25 mph 1013mb 85f 85f
5:50 4.5ft 6s 5s 20 25 mph 1012.7mb 85f 85f
4:50 4.5ft 6s 5s 20 22 mph 1013.5mb 85f 85f
3:50 4ft 7s 5s 16 20 mph 1013.7mb 85f 85f
2:50 4ft 6s 5s 18 20 mph 1014.1mb 85f 85f
1:50 4.5ft 7s 5s 18 20 mph 1014.5mb 85f 85f
12:50 4.5ft 6s 4s 18 20 mph 1014.8mb 85f 85f
11:50 4ft 6s 4s 18 22 mph 1015.3mb 85f 85f
10:50 3.5ft 7s 4s 20 22 mph 1015.6mb 85f 85f
9:50 4ft 6s 4s 18 20 mph 1015.5mb 85f 81f
8:50 4ft 6s 4s 20 25 mph 1015mb 85f 84f
7:50 4ft 6s 5s 22 27 mph 1013.7mb 85f 83f
6:50 4ft 6s 5s 18 22 mph 1014.4mb 85f 82f
5:50 4.5ft 6s 5s 16 20 mph 1013.8mb 85f 82f
4:50 4.5ft 5s 4s 16 18 mph 1013mb 85f 81f
3:50 3.5ft 5s 4s 20 25 mph 1013.1mb 85f 81f
2:50 3.5ft 5s 4s 29 36 mph 1012.5mb 85f 79f
1:50 3.5ft 4s 4s 16 18 mph 1013.5mb 85f 82f
12:50 2.5ft 6s 4s 18 27 mph 1013.3mb 85f 84f
Sa 09/13 11:50 2.5ft 5s 4s 13 16 mph 1013.4mb 85f 84f
10:50 2.5ft 6s 4s 13 18 mph 1014mb 85f 84f
9:50 2.5ft 6s 4s 16 18 mph 1013.7mb 85f 84f
8:50 2.5ft 6s 4s 13 18 mph 1012.7mb 85f 84f
7:50 3ft 5s 4s 13 18 mph 1012.1mb 85f 83f
6:50 2.5ft 6s 4s 16 18 mph 1011.5mb 85f 83f
5:50 2.5ft 5s 4s 16 18 mph 1011.3mb 86f 82f
4:50 3ft 6s 5s 13 16 mph 1011.2mb 86f 84f
3:50 3ft 5s 4s 11 13 mph 1011.3mb 86f 84f
2:50 3ft 5s 5s 13 16 mph 1011.6mb 86f 84f
1:50 3ft 5s 4s 11 16 mph 1012.5mb 86f 84f
12:50 3ft 5s 4s 20 22 mph 1012.8mb 86f 83f
11:50 3ft 5s 4s 13 16 mph 1013.4mb 86f 84f
10:50 2.5ft 5s 4s 13 16 mph 1013.4mb 86f 84f
9:50 2.5ft 5s 5s 13 16 mph 1013.3mb 86f 84f
8:50 3ft 5s 5s 13 16 mph 1012.9mb 86f 84f
7:50 2.5ft 8s 4s 9
mph
1012.7mb 85f 85f
6:50 3ft 5s 4s 11 13 mph 1012.5mb 85f 84f
5:50 3ft 6s 4s 13 16 mph 1012mb 85f 84f
4:50 3ft 5s 4s 13 16 mph 1011.4mb 85f 84f
3:50 3ft 4s 4s 11 13 mph 1011.4mb 86f 83f
2:50 3ft 8s 4s 13 16 mph 1011.5mb 86f 84f
1:50 2.5ft 4s 4s 16 18 mph 1011.7mb 86f 84f
12:50 2.5ft 5s 4s 16 20 mph 1012.2mb 86f 84f
Fr 09/12 11:50 2.5ft 8s 4s 16 18 mph 1012.6mb 86f 84f
10:50 3ft 8s 4s 16 20 mph 1012.7mb 86f 84f
9:50 2.5ft 9s 4s 16 18 mph 1013mb 86f 85f
8:50 2.5ft 5s 4s 13 16 mph 1012.5mb 86f 85f
7:50 2.5ft 6s 5s 13 18 mph 1011.8mb 86f 85f
6:50 3ft 5s 5s 16 18 mph 1011.6mb 86f 85f
5:50 3ft 5s 5s 13 16 mph 1010.9mb 86f 85f
4:50 3ft 6s 4s 13 16 mph 1011.1mb 86f 85f
3:50 3ft 6s 5s 11 13 mph 1011mb 86f 84f
2:50 3ft 5s 5s 13 16 mph 1011.4mb 86f 84f
1:50 3ft 6s 5s 13 16 mph 1012.1mb 86f 84f
12:50 3.5ft 6s 5s 11 13 mph 1012.7mb 86f 84f
11:50 3.5ft 6s 5s 16 18 mph 1012.9mb 86f 85f
10:50 3.5ft 6s 5s 18 20 mph 1013.3mb 86f 84f
9:50 3.5ft 6s 5s 13 16 mph 1013.3mb 86f 84f